createdAt,value
2019-06-01T00:00:10.864Z,4.17
2019-06-01T00:02:28.059Z,4.63
2019-06-01T00:04:54.623Z,4.87
2019-06-01T00:07:21.246Z,4.27
2019-06-01T00:09:47.763Z,4.57
2019-06-01T00:12:14.405Z,3.47
2019-06-01T00:14:41.682Z,5.00
2019-06-01T00:17:08.468Z,3.07
2019-06-01T00:19:35.193Z,3.53
2019-06-01T00:22:01.714Z,3.53
2019-06-01T00:24:28.214Z,4.43
2019-06-01T00:26:54.761Z,3.40
2019-06-01T00:29:21.321Z,3.73
2019-06-01T00:31:48.039Z,4.43
2019-06-01T00:34:14.640Z,3.73
2019-06-01T00:36:41.541Z,3.77
2019-06-01T00:39:08.239Z,4.10
2019-06-01T00:41:34.777Z,5.97
2019-06-01T00:44:01.399Z,3.50
2019-06-01T00:46:27.919Z,4.17
2019-06-01T00:48:54.911Z,4.17
2019-06-01T00:51:21.622Z,4.97
2019-06-01T00:53:49.577Z,5.10
2019-06-01T00:56:16.367Z,7.03
2019-06-01T00:58:43.656Z,5.97
2019-06-01T01:01:10.257Z,4.80
2019-06-01T01:03:36.918Z,4.30
2019-06-01T01:06:03.758Z,3.90
2019-06-01T01:08:30.330Z,4.23
2019-06-01T01:10:57.179Z,5.07
2019-06-01T01:13:25.219Z,5.53
2019-06-01T01:15:51.817Z,4.40
2019-06-01T01:18:18.533Z,4.13
2019-06-01T01:20:46.012Z,3.87
2019-06-01T01:23:12.620Z,4.63
2019-06-01T01:25:39.258Z,4.07
2019-06-01T01:28:05.885Z,3.97
2019-06-01T01:30:33.023Z,4.13
2019-06-01T01:33:02.937Z,5.07
2019-06-01T01:35:29.553Z,4.60
2019-06-01T01:37:56.530Z,5.07
2019-06-01T01:40:23.089Z,5.13
2019-06-01T01:42:50.552Z,4.77
2019-06-01T01:45:17.775Z,4.40
2019-06-01T01:47:44.409Z,4.83
2019-06-01T01:50:11.135Z,5.47
2019-06-01T01:52:37.671Z,4.30
2019-06-01T01:55:04.749Z,6.07
2019-06-01T01:57:31.416Z,5.77
2019-06-01T01:59:59.393Z,5.73
2019-06-01T02:02:26.099Z,5.23
2019-06-01T02:04:53.673Z,5.00
2019-06-01T02:07:20.317Z,6.80
2019-06-01T02:09:47.084Z,5.13
2019-06-01T02:12:13.615Z,5.03
2019-06-01T02:14:40.355Z,4.93
2019-06-01T02:17:07.450Z,5.60
2019-06-01T02:19:36.491Z,8.17
2019-06-01T02:22:03.682Z,4.50
2019-06-01T02:24:30.274Z,5.27
2019-06-01T02:26:57.234Z,7.27
2019-06-01T02:29:24.001Z,5.33
2019-06-01T02:31:50.613Z,5.63
2019-06-01T02:34:17.243Z,7.60
2019-06-01T02:36:43.819Z,5.17
2019-06-01T02:39:12.513Z,4.97
2019-06-01T02:41:39.180Z,7.07
2019-06-01T02:44:06.372Z,5.80
2019-06-01T02:46:35.745Z,4.87
2019-06-01T02:49:02.510Z,5.40
2019-06-01T02:51:30.077Z,5.27
2019-06-01T02:53:57.674Z,5.87
2019-06-01T02:56:24.385Z,7.23
2019-06-01T02:58:50.936Z,5.73
2019-06-01T03:01:28.685Z,4.73
2019-06-01T03:03:55.337Z,4.50
2019-06-01T03:06:22.078Z,6.83
2019-06-01T03:08:49.793Z,5.57
2019-06-01T03:11:18.562Z,4.63
2019-06-01T03:13:45.325Z,5.80
2019-06-01T03:16:12.784Z,5.77
2019-06-01T03:18:39.616Z,5.63
2019-06-01T03:21:06.405Z,5.20
2019-06-01T03:23:33.967Z,4.97
2019-06-01T03:26:02.093Z,4.57
2019-06-01T03:28:30.776Z,4.30
2019-06-01T03:30:57.447Z,5.63
2019-06-01T03:33:24.087Z,6.13
2019-06-01T03:35:50.767Z,6.13
2019-06-01T03:38:17.384Z,5.00
2019-06-01T03:40:45.039Z,7.07
2019-06-01T03:43:11.851Z,6.20
2019-06-01T03:45:38.419Z,5.63
2019-06-01T03:48:06.637Z,6.50
2019-06-01T03:50:33.614Z,5.77
2019-06-01T03:53:01.652Z,5.80
2019-06-01T03:55:28.483Z,5.00
2019-06-01T03:57:55.959Z,6.13
2019-06-01T04:00:22.579Z,5.53
2019-06-01T04:02:49.262Z,6.23
2019-06-01T04:05:15.891Z,4.90
2019-06-01T04:07:42.539Z,5.13
2019-06-01T04:10:09.991Z,5.50
2019-06-01T04:12:36.855Z,4.23
2019-06-01T04:15:10.125Z,5.60
2019-06-01T04:17:32.962Z,5.97
2019-06-01T04:19:59.732Z,6.50
2019-06-01T04:22:26.335Z,5.93
2019-06-01T04:24:53.058Z,6.13
2019-06-01T04:27:19.807Z,5.53
2019-06-01T04:29:46.513Z,4.20
2019-06-01T04:32:13.210Z,5.97
2019-06-01T04:34:39.914Z,6.87
2019-06-01T04:37:07.071Z,5.20
2019-06-01T04:39:33.594Z,4.23
2019-06-01T04:42:00.418Z,4.63
2019-06-01T04:44:27.200Z,4.70
2019-06-01T04:46:54.060Z,5.00
2019-06-01T04:49:20.877Z,5.47
2019-06-01T04:51:47.698Z,5.47
2019-06-01T04:54:16.021Z,5.47
2019-06-01T04:56:42.817Z,5.87
2019-06-01T04:59:10.896Z,5.60
2019-06-01T05:01:37.551Z,6.20
2019-06-01T05:04:04.927Z,6.27
2019-06-01T05:06:31.920Z,7.10
2019-06-01T05:08:59.573Z,6.90
2019-06-01T05:11:26.311Z,11.17
2019-06-01T05:13:52.986Z,10.27
2019-06-01T05:16:19.770Z,10.90
2019-06-01T05:18:46.467Z,9.17
2019-06-01T05:21:13.426Z,8.90
2019-06-01T05:23:41.739Z,10.63
2019-06-01T05:26:08.767Z,11.90
2019-06-01T05:28:35.436Z,11.83
2019-06-01T05:31:01.964Z,15.80
2019-06-01T05:33:36.877Z,12.80
2019-06-01T05:35:57.168Z,14.43
2019-06-01T05:38:23.801Z,15.47
2019-06-01T05:40:50.453Z,13.93
2019-06-01T05:43:19.218Z,14.20
2019-06-01T05:45:45.638Z,9.33
2019-06-01T05:48:16.276Z,12.93
2019-06-01T05:50:40.887Z,18.83
2019-06-01T05:53:07.508Z,12.33
2019-06-01T05:55:34.339Z,11.90
2019-06-01T05:58:01.065Z,11.73
2019-06-01T06:00:46.227Z,15.03
2019-06-01T06:03:16.236Z,12.17
2019-06-01T06:05:41.554Z,11.83
2019-06-01T06:08:08.181Z,10.73
2019-06-01T06:10:34.944Z,13.97
2019-06-01T06:13:01.669Z,10.87
2019-06-01T06:15:28.344Z,11.67
2019-06-01T06:17:55.410Z,9.97
2019-06-01T06:22:52.698Z,10.40
2019-06-01T06:25:19.463Z,11.07
2019-06-01T06:27:46.237Z,11.83
2019-06-01T06:30:13.327Z,12.83
2019-06-01T06:32:40.132Z,14.17
2019-06-01T06:35:06.896Z,12.37
2019-06-01T06:37:33.459Z,9.73
2019-06-01T06:40:00.211Z,11.17
2019-06-01T06:42:26.924Z,10.13
2019-06-01T06:44:53.491Z,10.83
2019-06-01T06:47:20.951Z,8.40
2019-06-01T06:49:48.096Z,8.87
2019-06-01T06:52:15.301Z,9.93
2019-06-01T06:54:41.895Z,9.73
2019-06-01T06:57:08.593Z,11.40
2019-06-01T06:59:35.353Z,10.60
2019-06-01T07:02:02.075Z,9.20
2019-06-01T07:04:29.137Z,10.53
2019-06-01T07:06:56.125Z,9.63
2019-06-01T07:09:23.970Z,11.37
2019-06-01T07:11:50.975Z,9.70
2019-06-01T07:14:19.205Z,9.57
2019-06-01T07:16:46.304Z,10.83
2019-06-01T07:19:13.169Z,9.37
2019-06-01T07:21:40.042Z,8.30
2019-06-01T07:24:06.735Z,9.20
2019-06-01T07:26:33.531Z,9.20
2019-06-01T07:29:00.107Z,8.90
2019-06-01T07:31:28.298Z,6.73
2019-06-01T07:33:54.976Z,8.30
2019-06-01T07:36:22.242Z,10.37
2019-06-01T07:38:49.381Z,7.20
2019-06-01T07:41:16.200Z,7.37
2019-06-01T07:43:43.575Z,7.77
2019-06-01T07:46:10.496Z,7.57
2019-06-01T07:48:37.225Z,7.33
2019-06-01T07:51:04.045Z,5.97
2019-06-01T07:53:31.542Z,6.20
2019-06-01T07:55:58.221Z,6.10
2019-06-01T07:58:25.207Z,6.93
2019-06-01T08:00:51.955Z,8.70
2019-06-01T08:03:18.817Z,6.33
2019-06-01T08:05:45.583Z,4.83
2019-06-01T08:08:12.505Z,7.33
2019-06-01T08:10:39.069Z,5.90
2019-06-01T08:13:06.100Z,6.27
2019-06-01T08:15:32.884Z,5.43
2019-06-01T08:17:59.622Z,6.17
2019-06-01T08:20:26.351Z,5.43
2019-06-01T08:22:53.110Z,4.63
2019-06-01T08:25:19.844Z,4.20
2019-06-01T08:27:46.536Z,3.80
2019-06-01T08:30:13.670Z,4.50
2019-06-01T08:32:40.380Z,4.53
2019-06-01T08:35:09.410Z,3.67
2019-06-01T08:37:35.938Z,6.33
2019-06-01T08:40:03.056Z,3.27
2019-06-01T08:42:29.737Z,5.17
2019-06-01T08:44:56.590Z,5.37
2019-06-01T08:47:23.643Z,3.57
2019-06-01T08:49:50.423Z,3.70
2019-06-01T08:52:17.227Z,2.90
2019-06-01T09:35:11.573Z,2.77
2019-06-01T09:37:47.691Z,3.20
2019-06-01T09:40:14.532Z,1.90
2019-06-01T09:42:41.300Z,2.00
2019-06-01T09:45:08.745Z,3.87
2019-06-01T09:47:35.689Z,2.07
2019-06-01T09:50:04.966Z,2.00
2019-06-01T09:52:31.680Z,2.83
2019-06-01T09:54:58.381Z,2.00
2019-06-01T09:57:25.138Z,2.37
2019-06-01T09:59:51.907Z,1.60
2019-06-01T10:02:18.827Z,2.30
2019-06-01T10:04:45.784Z,1.77
2019-06-01T10:07:12.526Z,1.60
2019-06-01T10:09:39.126Z,2.13
2019-06-01T10:12:05.845Z,3.43
2019-06-01T10:14:32.444Z,1.70
2019-06-01T10:16:59.258Z,1.60
2019-06-01T10:19:26.149Z,1.50
2019-06-01T10:21:52.775Z,2.20
2019-06-01T10:24:19.544Z,1.40
2019-06-01T10:26:46.120Z,1.50
2019-06-01T10:29:12.868Z,2.00
2019-06-01T10:31:41.433Z,1.50
2019-06-01T10:34:08.387Z,2.43
2019-06-01T11:07:08.442Z,2.00
2019-06-01T11:09:36.917Z,1.60
2019-06-01T11:12:03.827Z,1.50
2019-06-01T11:14:30.655Z,1.20
2019-06-01T11:16:57.526Z,1.40
2019-06-01T11:19:25.209Z,2.60
2019-06-01T11:21:52.058Z,1.43
2019-06-01T11:24:19.133Z,1.60
2019-06-01T11:26:45.847Z,1.40
2019-06-01T11:29:13.267Z,1.67
2019-06-01T11:31:40.211Z,1.40
2019-06-01T11:34:07.013Z,1.97
2019-06-01T11:36:34.233Z,1.57
2019-06-01T11:39:01.032Z,1.90
2019-06-01T11:41:27.600Z,1.00
2019-06-01T11:43:54.364Z,1.67
2019-06-01T11:46:21.671Z,1.33
2019-06-01T11:48:48.498Z,2.20
2019-06-01T11:51:15.266Z,1.30
2019-06-01T11:53:43.346Z,1.43
2019-06-01T11:56:10.206Z,1.50
2019-06-01T11:58:37.180Z,1.80
2019-06-01T12:01:04.053Z,1.33
2019-06-01T12:03:30.738Z,1.40
2019-06-01T12:05:57.413Z,3.03
2019-06-01T12:08:24.229Z,1.97
2019-06-01T12:10:50.964Z,1.43
2019-06-01T12:13:17.825Z,2.17
2019-06-01T12:15:44.542Z,2.37
2019-06-01T12:18:12.294Z,1.57
2019-06-01T12:20:38.985Z,1.33
2019-06-01T12:23:05.691Z,1.30
2019-06-01T12:25:35.779Z,1.50
2019-06-01T12:28:02.588Z,2.03
2019-06-01T12:30:29.191Z,1.30
2019-06-01T12:32:56.058Z,1.50
2019-06-01T12:35:23.124Z,1.30
2019-06-01T12:38:05.595Z,1.20
2019-06-01T12:40:18.569Z,4.90
2019-06-01T12:42:46.048Z,1.93
2019-06-01T12:45:17.070Z,0.90
2019-06-01T12:47:44.037Z,1.10
2019-06-01T12:50:10.893Z,1.20
2019-06-01T12:52:37.530Z,2.00
2019-06-01T12:55:04.536Z,1.40
2019-06-01T12:57:31.296Z,1.30
2019-06-01T12:59:58.176Z,1.47
2019-06-01T13:02:24.711Z,1.20
2019-06-01T13:04:51.418Z,1.20
2019-06-01T13:07:18.308Z,2.23
2019-06-01T13:09:46.122Z,2.30
2019-06-01T13:12:13.354Z,1.03
2019-06-01T13:28:46.390Z,1.57
2019-06-01T13:31:13.168Z,2.47
2019-06-01T13:33:42.220Z,1.07
2019-06-01T13:36:09.195Z,1.30
2019-06-01T13:38:36.031Z,2.10
2019-06-01T13:41:02.996Z,1.10
2019-06-01T13:43:29.866Z,1.10
2019-06-01T13:45:56.555Z,1.67
2019-06-01T13:48:23.316Z,1.10
2019-06-01T13:50:50.197Z,0.90
2019-06-01T13:53:16.888Z,1.00
2019-06-01T13:55:44.059Z,1.20
2019-06-01T13:58:11.033Z,1.00
2019-06-01T14:00:37.687Z,8.37
2019-06-01T14:03:04.539Z,4.63
2019-06-01T14:05:31.208Z,0.93
2019-06-01T14:07:57.947Z,1.60
2019-06-01T14:10:24.605Z,1.23
2019-06-01T14:12:53.491Z,1.30
2019-06-01T14:15:20.295Z,0.80
2019-06-01T14:17:48.029Z,1.10
2019-06-01T14:20:15.006Z,1.20
2019-06-01T14:22:41.784Z,1.50
2019-06-01T14:25:14.313Z,1.33
2019-06-01T14:27:38.878Z,1.00
2019-06-01T14:30:06.191Z,1.30
2019-06-01T14:32:35.192Z,1.60
2019-06-01T14:35:01.854Z,1.23
2019-06-01T14:37:28.552Z,1.00
2019-06-01T14:39:55.454Z,0.97
2019-06-01T14:42:22.226Z,1.13
2019-06-01T14:44:49.284Z,1.77
2019-06-01T14:47:18.648Z,1.00
2019-06-01T14:49:44.597Z,1.50
2019-06-01T14:52:11.254Z,3.13
2019-06-01T14:54:38.071Z,2.47
2019-06-01T14:57:04.831Z,19.83
2019-06-01T14:59:31.654Z,8.30
2019-06-01T15:01:58.498Z,2.87
2019-06-01T15:04:25.246Z,3.07
2019-06-01T15:06:52.402Z,2.70
2019-06-01T15:09:20.056Z,1.40
2019-06-01T15:11:48.743Z,5.40
2019-06-01T15:14:15.638Z,1.90
2019-06-01T15:16:42.519Z,1.20
2019-06-01T15:19:09.334Z,1.20
2019-06-01T15:21:36.022Z,1.97
2019-06-01T15:24:02.955Z,1.70
2019-06-01T15:26:29.717Z,1.30
2019-06-01T15:28:57.090Z,1.10
2019-06-01T15:31:23.738Z,0.80
2019-06-01T15:33:53.279Z,0.90
2019-06-01T15:36:20.414Z,0.87
2019-06-01T15:38:51.653Z,0.90
2019-06-01T15:41:18.408Z,1.83
2019-06-01T15:43:45.260Z,1.13
2019-06-01T15:46:14.682Z,0.97
2019-06-01T15:48:41.736Z,1.40
2019-06-01T15:51:08.508Z,1.33
2019-06-01T15:53:35.257Z,1.20
2019-06-01T15:56:03.419Z,1.10
2019-06-01T15:58:30.371Z,1.00
2019-06-01T16:00:57.227Z,1.20
2019-06-01T16:03:24.021Z,1.20
2019-06-01T16:05:50.830Z,2.27
2019-06-01T16:08:17.537Z,1.20
2019-06-01T16:10:44.170Z,0.97
2019-06-01T16:13:11.073Z,1.40
2019-06-01T16:15:37.887Z,1.50
2019-06-01T16:18:04.692Z,1.60
2019-06-01T16:20:31.235Z,1.60
2019-06-01T16:22:58.139Z,2.10
2019-06-01T16:25:24.923Z,1.30
2019-06-01T16:27:51.696Z,1.83
2019-06-01T16:30:18.733Z,2.70
2019-06-01T16:32:45.396Z,1.67
2019-06-01T16:35:12.096Z,1.93
2019-06-01T16:37:39.164Z,1.17
2019-06-01T16:40:10.281Z,1.10
2019-06-01T16:42:36.696Z,1.60
2019-06-01T16:45:04.030Z,0.80
2019-06-01T16:47:31.162Z,1.23
2019-06-01T16:49:57.865Z,0.90
2019-06-01T16:52:25.114Z,1.40
2019-06-01T16:54:51.967Z,1.30
2019-06-01T16:57:18.741Z,1.53
2019-06-01T16:59:45.550Z,1.50
2019-06-01T17:02:12.449Z,0.90
2019-06-01T17:04:39.387Z,1.13
2019-06-01T17:07:08.536Z,0.90
2019-06-01T17:09:35.041Z,1.13
2019-06-01T17:12:03.037Z,1.00
2019-06-01T17:14:31.214Z,1.00
2019-06-01T17:16:58.994Z,1.40
2019-06-01T17:19:26.101Z,1.50
2019-06-01T17:21:53.853Z,1.30
2019-06-01T17:24:20.578Z,1.40
2019-06-01T17:26:47.276Z,1.63
2019-06-01T17:29:14.054Z,1.20
2019-06-01T17:31:53.920Z,2.10
2019-06-01T17:34:11.692Z,1.13
2019-06-01T17:36:38.285Z,1.57
2019-06-01T17:39:06.086Z,1.33
2019-06-01T17:41:33.074Z,1.20
2019-06-01T17:44:00.563Z,1.40
2019-06-01T17:46:27.262Z,1.00
2019-06-01T17:48:53.979Z,1.50
2019-06-01T17:51:21.025Z,1.60
2019-06-01T17:53:47.843Z,2.20
2019-06-01T17:56:14.691Z,1.40
2019-06-01T17:58:41.445Z,1.40
2019-06-01T18:01:08.233Z,1.40
2019-06-01T18:03:34.759Z,1.93
2019-06-01T18:06:01.837Z,3.77
2019-06-01T18:08:28.485Z,1.60
2019-06-01T18:10:55.390Z,1.87
2019-06-01T18:13:22.168Z,2.17
2019-06-01T18:15:50.289Z,1.83
2019-06-01T18:18:17.186Z,1.40
2019-06-01T18:20:43.970Z,1.63
2019-06-01T18:23:11.407Z,2.40
2019-06-01T18:25:38.855Z,2.97
2019-06-01T18:28:06.817Z,1.87
2019-06-01T18:30:33.929Z,1.83
2019-06-01T18:33:00.845Z,2.17
2019-06-01T18:35:27.643Z,2.27
2019-06-01T18:37:55.444Z,2.13
2019-06-01T18:40:23.452Z,2.23
2019-06-01T18:42:54.542Z,3.40
2019-06-01T18:45:21.478Z,2.27
2019-06-01T18:47:48.842Z,1.50
2019-06-01T18:50:17.511Z,1.30
2019-06-01T18:52:44.378Z,1.50
2019-06-01T18:55:12.754Z,2.43
2019-06-01T18:57:40.599Z,2.20
2019-06-01T19:00:10.535Z,1.50
2019-06-01T19:02:36.295Z,3.50
2019-06-01T19:05:04.840Z,2.37
2019-06-01T19:07:31.731Z,4.30
2019-06-01T19:09:58.550Z,5.80
2019-06-01T19:12:25.367Z,11.30
2019-06-01T19:14:52.260Z,15.57
2019-06-01T19:17:19.012Z,16.50
2019-06-01T19:19:45.660Z,13.40
2019-06-01T19:22:12.574Z,13.00
2019-06-01T19:24:39.660Z,16.30
2019-06-01T19:27:06.828Z,19.43
2019-06-01T19:29:33.692Z,19.87
2019-06-01T19:32:00.670Z,17.07
2019-06-01T19:34:27.931Z,22.63
2019-06-01T19:36:54.684Z,16.50
2019-06-01T19:39:22.199Z,9.10
2019-06-01T19:41:48.900Z,4.80
2019-06-01T19:44:15.845Z,4.07
2019-06-01T19:46:42.802Z,2.13
2019-06-01T19:49:10.847Z,4.47
2019-06-01T19:51:37.653Z,3.20
2019-06-01T19:54:04.531Z,2.97
2019-06-01T19:56:31.163Z,2.40
2019-06-01T19:59:09.911Z,3.93
2019-06-01T20:01:37.202Z,3.93
2019-06-01T20:04:04.166Z,2.10
2019-06-01T20:06:30.939Z,2.23
2019-06-01T20:08:57.924Z,2.50
2019-06-01T20:11:24.615Z,2.50
2019-06-01T20:13:51.397Z,2.97
2019-06-01T20:16:20.232Z,2.40
2019-06-01T20:18:47.186Z,2.50
2019-06-01T20:21:14.045Z,2.80
2019-06-01T20:23:40.910Z,2.97
2019-06-01T20:26:07.614Z,3.13
2019-06-01T20:28:34.534Z,3.67
2019-06-01T20:31:01.244Z,3.10
2019-06-01T20:33:28.042Z,3.00
2019-06-01T20:35:55.833Z,3.17
2019-06-01T20:38:23.331Z,4.13
2019-06-01T20:40:50.225Z,4.30
2019-06-01T20:43:16.937Z,8.40
2019-06-01T20:45:43.668Z,10.40
2019-06-01T20:48:10.534Z,15.70
2019-06-01T20:50:37.245Z,30.73
2019-06-01T20:53:04.180Z,44.57
2019-06-01T20:55:30.973Z,53.70
2019-06-01T20:57:57.721Z,56.40
2019-06-01T21:00:24.658Z,43.53
2019-06-01T21:02:51.443Z,39.27
2019-06-01T21:05:18.177Z,23.53
2019-06-01T21:07:45.016Z,17.50
2019-06-01T21:10:14.034Z,7.83
2019-06-01T21:12:45.420Z,5.83
2019-06-01T21:15:09.650Z,6.37
2019-06-01T21:17:36.558Z,4.93
2019-06-01T21:20:04.856Z,4.80
2019-06-01T21:22:31.733Z,3.90
2019-06-01T21:24:58.757Z,3.97
2019-06-01T21:27:25.603Z,3.70
2019-06-01T21:29:52.957Z,3.83
2019-06-01T21:32:25.578Z,3.77
2019-06-01T21:34:52.923Z,3.70
2019-06-01T21:37:19.754Z,3.80
2019-06-01T21:39:46.610Z,3.83
2019-06-01T21:42:13.505Z,6.23
2019-06-01T21:44:40.409Z,3.20
2019-06-01T21:47:07.392Z,4.33
2019-06-01T21:49:34.280Z,3.90
2019-06-01T21:52:01.127Z,3.90
2019-06-01T21:54:27.928Z,3.57
2019-06-01T21:56:54.864Z,4.30
2019-06-01T21:59:22.717Z,4.57
2019-06-01T22:01:49.513Z,4.13
2019-06-01T22:04:16.721Z,4.43
2019-06-01T22:06:51.159Z,5.13
2019-06-01T22:09:19.114Z,3.83
2019-06-01T22:11:45.797Z,4.83
2019-06-01T22:14:12.648Z,5.10
2019-06-01T22:16:39.289Z,3.90
2019-06-01T22:19:05.988Z,4.67
2019-06-01T22:21:32.742Z,3.63
2019-06-01T22:23:59.452Z,4.00
2019-06-01T22:26:26.419Z,4.80
2019-06-01T22:28:53.253Z,4.50
2019-06-01T22:31:20.234Z,5.97
2019-06-01T22:33:46.949Z,4.70
2019-06-01T22:36:13.757Z,4.80
2019-06-01T22:38:40.427Z,5.27
2019-06-01T22:41:07.171Z,4.10
2019-06-01T22:43:45.693Z,5.40
2019-06-01T22:46:02.646Z,4.00
2019-06-01T22:48:29.344Z,4.30
2019-06-01T22:50:56.149Z,4.17
2019-06-01T22:53:24.045Z,4.67
2019-06-01T22:55:50.775Z,5.60
2019-06-01T22:58:17.456Z,6.93
2019-06-01T23:00:44.254Z,3.77
2019-06-01T23:03:10.972Z,3.97
2019-06-01T23:05:37.622Z,5.53
2019-06-01T23:08:04.561Z,3.73
2019-06-01T23:10:34.951Z,4.47
2019-06-01T23:12:59.824Z,3.73
2019-06-01T23:15:27.928Z,6.93
2019-06-01T23:17:54.904Z,4.80
2019-06-01T23:20:21.758Z,4.77
2019-06-01T23:22:48.544Z,5.57
2019-06-01T23:25:15.217Z,5.00
2019-06-01T23:27:42.168Z,5.90
2019-06-01T23:30:09.050Z,4.10
2019-06-01T23:32:35.606Z,4.20
2019-06-01T23:35:02.499Z,5.50
2019-06-01T23:37:29.241Z,5.40
2019-06-01T23:39:55.814Z,5.60
2019-06-01T23:42:22.622Z,5.33
2019-06-01T23:44:49.248Z,5.10
2019-06-01T23:47:15.943Z,4.17
2019-06-01T23:49:42.697Z,4.80
2019-06-01T23:52:09.440Z,8.27
2019-06-01T23:54:36.091Z,3.73
2019-06-01T23:57:02.866Z,4.87
2019-06-01T23:59:30.893Z,5.03
